Airfield :
LOGIN :

Register | Disclaimer

   EN    FR    IT 

 










Legend :    VFR   Marginal VFR   IFR   Intensive IFR   Very Intensive IFR
Visi :
Ceiling :
>= 8 km
>= 3000ft
5 to 8 km
1000 to 3000 ft
1500m to 5 km
500 to 1000 ft
800 to 1500m
200 to 500 ft
< 800m
< 200 ft
Symbols :   Thunderstorms  Fog  Heavy snow  Heavy precipitations  Wind > 20 kt
SIGMETs :     Misc.  Thunderstorms  Icing  Turbulence  Mountain Waves  Volcanic Ashes






- Airport Elevation : 489 ft
- IATA code : GDN


EPGD - Gdansk

CURRENT METAR :
  • 191700Z 25009KT 9999 SCT015 03/02 Q1008

EXPIRED METARs :
  • 191630Z 25009KT 9999 SCT016 04/02 Q1007
  • 191600Z 24008KT 9999 FEW012 04/02 Q1007
  • 191530Z 24008KT 9999 FEW010 SCT021 BKN036 04/02 Q1007
  • 191500Z 24011KT 9999 -RA SCT011 BKN018 04/03 Q1007
  • 191430Z 23012KT 9999 SCT010 BKN025 05/02 Q1007

TAF AMD TAF EPGD
Valid from the 19 at 12:00 until the 20 at 12:00 UTC


191258Z 1912/2012 21012KT 9999 SCT020
TEMPO 1912/1916 -RA BKN010
PROB40
TEMPO 1912/1916 -SHRA BKN012TCU
BECMG 1915/1917 27008KT
TEMPO 1916/1924 3000 SHSNRA BKN005 BKN010CB
PROB40 2000/2008 BKN007
BECMG 2009/2012 19010KT



MET'MAP, your aeronautical weather chart ! - Copyright ORBIFLY December 2007 - Disclaimer

ORBIFLY MET'MAP TEAM :

Programming & Development : Alexandra Zaïnal
Concept & original design : Baudouin d'Aumeries
Assistance for programming : Marc-Olivier Méhu
Technical & hardware support : Manuel Goepfert

Contact : metmap@orbifly.com




SOURCES & CREDITS :

   NOAA